Latest Weather Observations for Luncheon Hill

IDT60801

Issued at 5:31 pm EST Wednesday 10 August 2022 (issued every 10 minutes, with the page automatically refreshed every 10 minutes)

About weather observations | Map of weather stations | Latest weather observations for TAS | Other Formats
Station Details ID: 091259 Name: LUNCHEON HILL (FORESTRY) Lat: -41.15 Lon: 145.15 Height: 344.0 m
Data from the previous 72 hours. | See also: Recent months at Luncheon Hill
Date/Time
EST
Temp
°C
App
Temp
°C
Dew
Point
°C
Rel
Hum
%
Delta-T
°C
Wind Press
QNH
hPa
Press
MSL
hPa
Rain since
9am
mm
Dir  Spd
km/h
Gust
km/h
Spd
kts
Gust
kts
10/05:30pm 7.1 -0.8 4.6 84 1.1 NE 35 44 19 24 - - 0.0
10/05:05pm 7.3 -0.6 4.6 83 1.2 NE 35 54 19 29 - - 0.0
10/05:00pm 7.4 -0.8 4.7 83 1.2 NE 37 54 20 29 - - 0.0
10/04:30pm 7.8 -0.4 4.7 81 1.4 NE 37 50 20 27 - - 0.0
10/04:00pm 8.0 -0.6 4.4 78 1.6 NE 39 54 21 29 - - 0.0
10/03:30pm 8.0 -1.1 3.8 75 1.8 NE 41 52 22 28 - - 0.0
10/03:00pm 8.2 -2.4 3.3 71 2.1 NE 48 61 26 33 - - 0.0
10/02:30pm 8.7 -1.1 3.3 69 2.4 NE 44 63 24 34 - - 0.0
10/02:00pm 9.8 1.0 3.5 65 2.8 NE 39 61 21 33 - - 0.0
10/01:30pm 8.6 -0.1 4.2 74 2.0 NE 39 57 21 31 - - 0.0
10/01:05pm 9.0 0.6 3.8 70 2.3 NE 37 56 20 30 - - 0.0
10/01:00pm 9.2 1.3 4.2 71 2.2 NE 35 46 19 25 - - 0.0
10/12:30pm 9.2 -0.4 4.4 72 2.2 NE 44 59 24 32 - - 0.0
10/12:00pm 9.3 0.9 3.9 69 2.4 NE 37 56 20 30 - - 0.0
10/11:30am 9.3 -0.6 2.6 63 2.9 NE 44 61 24 33 - - 0.0
10/11:17am 9.2 -0.2 2.5 63 2.9 NNE 41 59 22 32 - - 0.0
10/11:00am 8.5 0.3 4.9 78 1.6 NE 37 50 20 27 - - 0.0
10/10:38am 8.2 -0.4 4.6 78 1.6 NE 39 57 21 31 - - 0.0
10/10:30am 8.3 0.1 4.9 79 1.5 NE 37 54 20 29 - - 0.0
10/10:29am 8.2 0.4 4.8 79 1.5 NE 35 54 19 29 - - 0.0
10/10:00am 7.3 -0.6 4.3 81 1.3 NE 35 48 19 26 - - 0.0
10/09:32am 7.4 0.1 4.7 83 1.2 ENE 32 50 17 27 - - 0.0
10/09:30am 7.4 0.6 4.9 84 1.1 ENE 30 43 16 23 - - 0.0
10/09:00am 6.8 0.1 5.6 92 0.5 NE 30 44 16 24 - - 0.4
10/08:30am 6.0 0.1 6.0 100 0.0 ENE 26 39 14 21 - - 0.4
10/08:00am 5.3 -0.3 5.3 100 0.0 ENE 24 35 13 19 - - 0.4
10/07:30am 5.1 -0.2 5.1 100 0.0 ENE 22 30 12 16 - - 0.4
10/07:00am 5.1 -0.2 5.1 100 0.0 ENE 22 28 12 15 - - 0.4
10/06:30am 4.9 0.0 4.9 100 0.0 ENE 20 30 11 16 - - 0.4
10/06:00am 4.7 -0.7 4.7 100 0.0 ENE 22 28 12 15 - - 0.4
10/05:30am 4.4 -0.6 4.4 100 0.0 ENE 20 30 11 16 - - 0.2
10/05:00am 4.7 -0.3 4.7 100 0.0 ENE 20 26 11 14 - - 0.2
10/04:30am 4.5 -0.3 4.5 100 0.0 ENE 19 24 10 13 - - 0.2
10/04:00am 4.0 -0.5 4.0 100 0.0 E 17 20 9 11 - - 0.2
10/03:30am 3.9 -0.7 3.9 100 0.0 E 17 20 9 11 - - 0.2
10/03:00am 4.7 -0.3 4.7 100 0.0 ENE 20 24 11 13 - - 0.2
10/02:30am 4.6 -0.2 4.6 100 0.0 ENE 19 26 10 14 - - 0.2
10/02:00am 5.0 0.1 5.0 100 0.0 ENE 20 22 11 12 - - 0.2
10/01:30am 4.4 0.3 4.4 100 0.0 E 15 19 8 10 - - 0.0
10/01:00am 4.2 0.5 4.2 100 0.0 ESE 13 20 7 11 - - 0.0
10/12:30am 5.2 1.6 5.2 100 0.0 ENE 13 15 7 8 - - 0.0
10/12:00am 5.2 1.3 5.2 100 0.0 NE 15 17 8 9 - - 0.0
 
Date/Time
EST
Temp
°C
App
Temp
°C
Dew
Point
°C
Rel
Hum
%
Delta-T
°C
Wind Press
QNH
hPa
Press
MSL
hPa
Rain since
9am
mm
Dir  Spd
km/h
Gust
km/h
Spd
kts
Gust
kts
09/11:30pm 5.6 1.0 5.6 100 0.0 ENE 19 20 10 11 - - 0.0
09/11:00pm 5.6 1.0 5.6 100 0.0 ENE 19 20 10 11 - - 0.0
09/10:30pm 5.5 1.3 5.5 100 0.0 ENE 17 20 9 11 - - 0.0
09/10:00pm 5.7 1.9 5.7 100 0.0 ENE 15 19 8 10 - - 0.0
09/09:30pm 5.7 2.3 5.7 100 0.0 E 13 15 7 8 - - 0.0
09/09:00pm 5.6 2.9 5.5 99 0.0 NE 9 11 5 6 - - 0.0
09/08:30pm 6.1 3.1 5.8 98 0.1 NE 11 13 6 7 - - 0.0
09/08:00pm 6.4 3.7 5.7 95 0.3 NNE 9 11 5 6 - - 0.0
09/07:30pm 7.0 4.8 5.5 90 0.7 WNW 6 7 3 4 - - 0.0
09/07:00pm 7.0 5.9 5.2 88 0.8 CALM 0 0 0 0 - - 0.0
09/06:30pm 6.9 4.7 5.1 88 0.8 WNW 6 9 3 5 - - 0.0
09/06:00pm 7.2 4.9 5.0 86 1.0 W 6 7 3 4 - - 0.0
09/05:30pm 8.1 5.7 5.2 82 1.3 WSW 7 11 4 6 - - 0.0
09/05:00pm 8.7 6.0 5.6 81 1.4 WSW 9 15 5 8 - - 0.0
09/04:30pm 9.1 6.4 5.7 79 1.6 WNW 9 13 5 7 - - 0.0
09/04:00pm 9.1 5.1 4.9 75 1.9 N 15 19 8 10 - - 0.0
09/03:30pm 10.3 8.2 5.9 74 2.1 SW 6 7 3 4 - - 0.0
09/03:00pm 10.4 7.6 5.2 70 2.4 SW 9 15 5 8 - - 0.0
09/02:30pm 12.0 9.1 4.5 60 3.5 SSW 9 17 5 9 - - 0.0
09/02:00pm 12.9 10.9 4.3 56 4.0 SSW 4 7 2 4 - - 0.0
09/01:30pm 12.8 10.6 6.2 64 3.2 SSE 7 19 4 10 - - 0.0
09/01:00pm 10.7 8.4 5.0 68 2.6 SW 6 11 3 6 - - 0.0
09/12:30pm 10.3 7.6 5.5 72 2.2 W 9 15 5 8 - - 0.0
09/12:00pm 9.8 7.7 6.0 77 1.8 WSW 6 7 3 4 - - 0.0
09/11:30am 9.2 6.9 5.8 79 1.6 SW 7 9 4 5 - - 0.0
09/11:00am 8.2 7.3 6.2 87 0.9 CALM 0 0 0 0 - - 0.0
09/10:30am 7.6 6.7 5.9 89 0.8 CALM 0 0 0 0 - - 0.0
09/10:00am 9.2 8.5 8.6 96 0.3 SE 2 6 1 3 - - 0.0
09/09:30am 7.9 7.0 7.9 100 0.0 SE 2 7 1 4 - - 0.0
09/09:00am 7.0 5.0 7.0 100 0.0 SE 7 9 4 5 - - 0.4
09/08:30am 6.5 4.4 6.5 100 0.0 SE 7 9 4 5 - - 0.4
09/08:00am 5.9 3.6 5.9 100 0.0 SE 7 9 4 5 - - 0.4
09/07:30am 5.3 2.9 5.3 100 0.0 SE 7 9 4 5 - - 0.4
09/07:00am 5.2 2.8 5.2 100 0.0 SE 7 9 4 5 - - 0.4
09/06:30am 5.1 4.0 5.1 100 0.0 CALM 0 7 0 4 - - 0.4
09/06:00am 5.6 4.2 5.6 100 0.0 E 2 7 1 4 - - 0.4
09/05:30am 6.0 3.9 6.0 100 0.0 N 6 7 3 4 - - 0.4
09/05:00am 5.2 3.7 5.2 100 0.0 ENE 2 7 1 4 - - 0.4
09/04:30am 4.4 1.8 4.4 100 0.0 ENE 7 7 4 4 - - 0.4
09/04:00am 4.5 2.0 4.5 100 0.0 NNE 7 9 4 5 - - 0.4
09/03:30am 5.4 3.0 5.4 100 0.0 NNE 7 9 4 5 - - 0.4
09/03:00am 4.8 2.3 4.8 100 0.0 ENE 7 9 4 5 - - 0.4
09/02:30am 4.6 2.1 4.6 100 0.0 ENE 7 9 4 5 - - 0.4
09/02:00am 4.8 1.9 4.8 100 0.0 NE 9 11 5 6 - - 0.4
09/01:30am 5.2 2.4 5.2 100 0.0 NE 9 9 5 5 - - 0.4
09/01:00am 5.5 2.8 5.5 100 0.0 NNE 9 11 5 6 - - 0.4
09/12:30am 5.5 2.4 5.5 100 0.0 NE 11 13 6 7 - - 0.4
09/12:00am 5.3 2.1 5.3 100 0.0 NNE 11 15 6 8 - - 0.2
 
Date/Time
EST
Temp
°C
App
Temp
°C
Dew
Point
°C
Rel
Hum
%
Delta-T
°C
Wind Press
QNH
hPa
Press
MSL
hPa
Rain since
9am
mm
Dir  Spd
km/h
Gust
km/h
Spd
kts
Gust
kts
08/11:30pm 5.5 2.0 5.5 100 0.0 NE 13 15 7 8 - - 0.2
08/11:00pm 5.6 2.1 5.6 100 0.0 NE 13 15 7 8 - - 0.2
08/10:30pm 5.3 2.5 5.3 100 0.0 ENE 9 15 5 8 - - 0.2
08/10:00pm 5.3 1.8 5.3 100 0.0 ENE 13 17 7 9 - - 0.2
08/09:30pm 5.8 2.4 5.8 100 0.0 ENE 13 17 7 9 - - 0.2
08/09:00pm 5.9 1.4 5.9 100 0.0 NE 19 20 10 11 - - 0.2
08/08:30pm 5.8 2.0 5.8 100 0.0 ENE 15 20 8 11 - - 0.2
08/08:00pm 5.7 2.3 5.7 100 0.0 ENE 13 17 7 9 - - 0.2
08/07:30pm 5.9 2.1 5.9 100 0.0 ENE 15 20 8 11 - - 0.2
08/07:00pm 6.1 2.0 6.1 100 0.0 ENE 17 20 9 11 - - 0.2
08/06:30pm 6.3 2.6 6.3 100 0.0 ENE 15 20 8 11 - - 0.2
08/06:00pm 6.4 2.3 6.3 99 0.0 NE 17 20 9 11 - - 0.2
08/05:30pm 6.7 2.3 6.4 98 0.1 NE 19 20 10 11 - - 0.2
08/05:00pm 7.0 3.0 6.7 98 0.1 NE 17 20 9 11 - - 0.2
08/04:30pm 7.1 3.5 6.8 98 0.1 ENE 15 19 8 10 - - 0.2
08/04:00pm 7.4 3.9 7.0 97 0.2 NE 15 20 8 11 - - 0.2
08/03:30pm 7.6 4.1 7.2 97 0.2 NE 15 22 8 12 - - 0.2
08/03:00pm 7.8 3.9 6.9 94 0.4 NNE 17 26 9 14 - - 0.2
08/02:30pm 8.5 3.8 6.0 84 1.2 NE 20 26 11 14 - - 0.0
08/02:00pm 8.8 4.7 7.7 93 0.5 NNE 19 24 10 13 - - 0.0
08/01:30pm 9.1 4.9 5.5 78 1.7 NE 17 24 9 13 - - 0.0
08/01:00pm 9.0 3.8 5.7 80 1.5 NE 22 28 12 15 - - 0.0
08/12:30pm 8.8 3.2 5.4 79 1.6 NE 24 35 13 19 - - 0.0
08/12:00pm 8.9 3.7 5.3 78 1.7 NE 22 30 12 16 - - 0.0
08/11:30am 8.2 3.5 5.1 81 1.4 NE 19 26 10 14 - - 0.0
08/11:00am 9.5 4.4 6.2 80 1.6 NE 22 30 12 16 - - 0.0
08/10:30am 7.7 2.4 5.0 83 1.2 NE 22 33 12 18 - - 0.0
08/10:00am 7.4 2.7 5.2 86 1.0 ENE 19 26 10 14 - - 0.0
08/09:30am 7.2 2.5 5.0 86 1.0 ENE 19 28 10 15 - - 0.0
08/09:00am 5.9 1.1 4.5 91 0.6 ENE 19 28 10 15 - - 0.2
08/08:30am 5.3 -0.1 4.3 93 0.4 ENE 22 30 12 16 - - 0.2
08/08:00am 4.9 -0.9 4.2 95 0.3 ENE 24 32 13 17 - - 0.2
08/07:30am 4.6 -0.3 4.0 96 0.3 E 19 30 10 16 - - 0.2
08/07:00am 4.5 -0.6 3.9 96 0.3 E 20 28 11 15 - - 0.2
08/06:30am 4.7 -0.4 4.3 97 0.2 ENE 20 28 11 15 - - 0.2
08/06:00am 4.6 -0.5 4.2 97 0.2 ENE 20 28 11 15 - - 0.2
08/05:30am 4.6 -0.4 4.5 99 0.0 ENE 20 28 11 15 - - 0.0
08/05:00am 4.3 -0.8 4.2 99 0.0 E 20 30 11 16 - - 0.0
08/04:30am 4.3 -0.6 4.2 99 0.0 E 19 28 10 15 - - 0.0
08/04:00am 4.2 -0.9 3.9 98 0.1 E 20 28 11 15 - - 0.0
08/03:30am 4.5 -0.6 4.2 98 0.1 ENE 20 28 11 15 - - 0.0
08/03:00am 4.5 -0.6 4.2 98 0.1 E 20 28 11 15 - - 0.0
08/02:30am 4.6 -0.5 4.2 97 0.2 E 20 30 11 16 - - 0.0
08/02:00am 4.7 -0.4 4.1 96 0.3 ENE 20 28 11 15 - - 0.0
08/01:30am 4.6 -0.5 3.9 95 0.3 ENE 20 30 11 16 - - 0.0
08/01:00am 4.6 -0.5 3.9 95 0.3 ENE 20 28 11 15 - - 0.0
08/12:30am 4.7 -0.5 3.7 93 0.4 ENE 20 28 11 15 - - 0.0
08/12:00am 5.0 -0.5 4.0 93 0.4 ENE 22 28 12 15 - - 0.0
 
Date/Time
EST
Temp
°C
App
Temp
°C
Dew
Point
°C
Rel
Hum
%
Delta-T
°C
Wind Press
QNH
hPa
Press
MSL
hPa
Rain since
9am
mm
Dir  Spd
km/h
Gust
km/h
Spd
kts
Gust
kts
07/11:30pm 5.0 -0.1 4.0 93 0.4 ENE 20 26 11 14 - - 0.0
07/11:00pm 5.1 0.0 4.2 94 0.4 ENE 20 26 11 14 - - 0.0
07/10:30pm 5.1 0.0 4.1 93 0.4 ENE 20 26 11 14 - - 0.0
07/10:00pm 5.1 0.1 3.6 90 0.6 ENE 19 24 10 13 - - 0.0
07/09:30pm 5.1 -0.1 3.6 90 0.6 ENE 20 24 11 13 - - 0.0
07/09:00pm 5.0 -0.1 3.3 89 0.7 ENE 19 26 10 14 - - 0.0
07/08:30pm 5.2 0.0 3.4 88 0.8 ENE 20 26 11 14 - - 0.0
07/08:00pm 5.2 0.0 3.4 88 0.8 ENE 20 26 11 14 - - 0.0
07/07:30pm 5.4 0.3 3.3 86 0.9 ENE 19 28 10 15 - - 0.0
07/07:00pm 5.4 0.3 3.1 85 1.0 ENE 19 24 10 13 - - 0.0
07/06:30pm 5.8 0.4 2.6 80 1.3 ENE 20 24 11 13 - - 0.0
07/06:00pm 6.0 0.6 2.6 79 1.4 NE 20 24 11 13 - - 0.0

Other formats

Comma delimited format used in spreadsheet applications
http://www.bom.gov.au/fwo/IDT60801/IDT60801.95956.axf

JavaScript Object Notation format (JSON) in row-major order
http://www.bom.gov.au/fwo/IDT60801/IDT60801.95956.json

Data quality

Most of these data are generated automatically and are frequently updated. Quality checks on data are not normally performed. It is possible for incorrect values to appear. Refer to information at About Latest Weather Observations and please check the disclaimer before using these data.